Time;durP1;ratioP1;P1;durP2;ratioP2;P2;SDS_P1;SDS_P2;PMS_P1;PMS_P2;Temp;Humidity;BMP_temperature;BMP_pressure;BME280_temperature;BME280_humidity;BME280_pressure;Samples;Min_cycle;Max_cycle;Signal;HPM_P1;HPM_P2
2023/06/30 00:02:22;;;;;;;8.57;3.10;;;;;;;15.68;95.52;101389.00;4950371;29;20035;-79
2023/06/30 00:04:47;;;;;;;7.53;3.00;;;;;;;15.65;95.50;101393.59;4952814;29;20030;-79
2023/06/30 00:07:13;;;;;;;6.50;2.80;;;;;;;15.53;95.80;101389.31;4957064;28;20034;-79
2023/06/30 00:09:38;;;;;;;7.93;3.10;;;;;;;15.50;95.71;101394.88;4972071;28;20026;-80
2023/06/30 00:12:04;;;;;;;6.63;3.00;;;;;;;15.50;95.37;101394.03;4989892;28;20026;-79
2023/06/30 00:14:30;;;;;;;8.32;2.97;;;;;;;15.46;95.61;101390.81;4984435;28;20034;-80
2023/06/30 00:16:56;;;;;;;7.72;3.00;;;;;;;15.44;95.58;101400.72;4972311;28;20027;-80
2023/06/30 00:19:25;;;;;;;11.60;3.67;;;;;;;15.35;95.79;101396.19;4986405;28;20041;-80
2023/06/30 00:21:52;;;;;;;10.75;3.33;;;;;;;15.36;95.79;101395.22;4971223;28;20030;-80
2023/06/30 00:24:18;;;;;;;7.97;3.05;;;;;;;15.36;95.52;101395.22;4966965;28;20037;-80
2023/06/30 00:26:43;;;;;;;10.73;3.10;;;;;;;15.27;95.70;101386.25;4980488;28;20080;-80
2023/06/30 00:29:09;;;;;;;11.00;3.08;;;;;;;15.26;95.42;101389.03;4972853;28;20483;-80
2023/06/30 00:31:35;;;;;;;10.10;3.03;;;;;;;15.30;95.66;101387.78;4973780;28;20027;-80
2023/06/30 00:34:00;;;;;;;7.18;2.90;;;;;;;15.22;95.60;101382.31;4988743;28;20046;-79
2023/06/30 00:36:26;;;;;;;8.48;3.28;;;;;;;15.19;95.82;101382.53;4974914;28;20018;-80
2023/06/30 00:38:51;;;;;;;8.82;3.00;;;;;;;15.11;95.89;101377.91;4985297;28;20054;-79
2023/06/30 00:41:18;;;;;;;7.63;2.90;;;;;;;15.10;95.84;101381.53;4970285;28;20034;-79
2023/06/30 00:43:43;;;;;;;9.30;3.20;;;;;;;15.05;95.75;101376.59;4970189;28;20027;-80
2023/06/30 00:46:11;;;;;;;9.63;3.28;;;;;;;14.97;95.99;101371.13;4970852;28;20025;-79
2023/06/30 00:48:36;;;;;;;8.02;3.63;;;;;;;14.98;96.05;101375.44;4971286;28;20107;-80
2023/06/30 00:51:02;;;;;;;6.82;3.28;;;;;;;14.99;96.37;101371.84;4970226;28;20142;-80
2023/06/30 00:53:27;;;;;;;6.85;3.17;;;;;;;14.95;96.50;101381.00;4970714;28;20035;-79
2023/06/30 00:55:53;;;;;;;9.23;3.53;;;;;;;14.90;96.54;101380.56;4968417;28;20073;-79
2023/06/30 00:58:18;;;;;;;9.63;3.63;;;;;;;14.81;96.73;101376.03;4962885;28;20077;-80
2023/06/30 01:00:44;;;;;;;12.57;3.13;;;;;;;14.84;96.73;101381.06;4951739;28;20035;-79
2023/06/30 01:03:25;;;;;;;10.77;3.67;;;;;;;14.81;97.39;101389.28;4951430;28;20034;-80
2023/06/30 01:05:59;;;;;;;9.60;3.70;;;;;;;14.77;97.66;101385.19;4950432;28;20055;-79
2023/06/30 01:08:29;;;;;;;8.57;3.30;;;;;;;14.78;97.42;101375.41;4951400;28;20023;-80
2023/06/30 01:10:55;;;;;;;6.55;3.13;;;;;;;14.72;97.45;101388.22;4965952;28;20029;-80
2023/06/30 01:13:21;;;;;;;11.43;3.72;;;;;;;14.73;97.36;101379.28;4987458;28;20121;-80
2023/06/30 01:15:47;;;;;;;11.65;4.00;;;;;;;14.73;97.47;101378.44;4979114;28;20058;-80
2023/06/30 01:18:15;;;;;;;12.38;3.80;;;;;;;14.70;97.15;101384.00;4972084;28;20081;-80
2023/06/30 01:20:41;;;;;;;7.80;3.35;;;;;;;14.67;97.40;101389.56;4970524;28;20438;-79
2023/06/30 01:23:14;;;;;;;7.93;3.30;;;;;;;14.62;97.88;101383.81;4973408;28;20031;-80
2023/06/30 01:25:39;;;;;;;7.80;3.28;;;;;;;14.63;97.52;101383.69;4979515;28;20050;-79
2023/06/30 01:28:06;;;;;;;12.57;3.97;;;;;;;14.60;97.40;101388.38;4979662;28;20054;-80
2023/06/30 01:30:31;;;;;;;10.13;3.75;;;;;;;14.63;97.20;101385.50;4979246;28;20031;-80
2023/06/30 01:32:58;;;;;;;8.77;3.47;;;;;;;14.60;97.60;101391.88;4982818;28;20419;-79
2023/06/30 01:35:27;;;;;;;8.13;3.30;;;;;;;14.55;97.69;101390.56;4982125;28;20061;-79
2023/06/30 01:37:54;;;;;;;8.30;3.75;;;;;;;14.60;97.41;101391.03;4986833;28;20019;-79
2023/06/30 01:40:20;;;;;;;10.68;3.40;;;;;;;14.56;97.59;101381.66;4985425;28;20049;-80
2023/06/30 01:42:47;;;;;;;12.05;3.42;;;;;;;14.52;97.32;101374.94;4971367;28;20027;-80
2023/06/30 01:45:15;;;;;;;8.45;3.22;;;;;;;14.45;97.71;101373.78;4972735;28;20463;-80
2023/06/30 01:47:40;;;;;;;6.32;2.97;;;;;;;14.43;97.51;101367.75;4972309;28;20046;-80
2023/06/30 01:50:06;;;;;;;9.68;3.25;;;;;;;14.43;97.68;101370.41;4978111;28;20118;-80
2023/06/30 01:52:32;;;;;;;11.70;3.40;;;;;;;14.32;97.63;101372.06;4970376;28;20041;-80
2023/06/30 01:54:57;;;;;;;11.23;3.50;;;;;;;14.30;97.86;101371.34;4975905;28;20030;-80
2023/06/30 01:57:23;;;;;;;10.23;3.78;;;;;;;14.29;97.33;101367.03;4980906;28;20390;-81
2023/06/30 01:59:48;;;;;;;12.25;4.18;;;;;;;14.23;97.74;101370.16;5003723;28;20386;-80
2023/06/30 02:02:13;;;;;;;7.70;3.50;;;;;;;14.22;97.82;101367.66;4980433;28;20069;-80
2023/06/30 02:04:39;;;;;;;8.50;2.92;;;;;;;14.13;97.90;101369.25;4982353;28;20030;-80
2023/06/30 02:07:04;;;;;;;10.65;3.50;;;;;;;14.11;97.91;101373.81;4977777;28;20045;-81
2023/06/30 02:09:29;;;;;;;8.73;3.88;;;;;;;14.03;98.43;101373.59;4982878;28;20034;-79
2023/06/30 02:11:55;;;;;;;8.52;3.75;;;;;;;14.01;97.84;101365.78;4991187;28;20034;-81
2023/06/30 02:14:21;;;;;;;9.57;3.60;;;;;;;14.01;98.19;101370.22;4985922;28;20033;-80
2023/06/30 02:16:46;;;;;;;10.90;3.25;;;;;;;13.85;98.62;101364.47;4990806;28;20076;-81
2023/06/30 02:19:12;;;;;;;11.27;3.28;;;;;;;13.85;98.79;101367.09;4985555;28;20030;-81
2023/06/30 02:21:43;;;;;;;10.52;3.40;;;;;;;13.77;99.16;101373.84;4983404;28;20092;-81
2023/06/30 02:24:09;;;;;;;8.48;3.60;;;;;;;13.76;98.76;101373.97;4972105;28;20085;-81
2023/06/30 02:26:34;;;;;;;10.48;3.58;;;;;;;13.68;99.13;101369.28;4971790;28;20026;-81
2023/06/30 02:29:00;;;;;;;9.68;3.67;;;;;;;13.66;98.89;101365.94;4971705;28;20023;-81
2023/06/30 02:31:25;;;;;;;11.32;3.78;;;;;;;13.63;98.90;101363.53;4988074;28;20045;-81
2023/06/30 02:33:52;;;;;;;10.18;4.00;;;;;;;13.60;98.93;101371.66;4982604;28;20022;-80
2023/06/30 02:36:18;;;;;;;6.43;3.13;;;;;;;13.59;99.46;101379.72;4981190;28;20073;-81
2023/06/30 02:38:44;;;;;;;10.63;4.00;;;;;;;13.51;99.46;101382.97;4985066;28;20054;-79
2023/06/30 02:41:10;;;;;;;7.22;3.83;;;;;;;13.48;99.63;101386.69;4977613;28;20031;-81
2023/06/30 02:43:35;;;;;;;7.53;3.78;;;;;;;13.50;99.54;101386.56;4973538;28;20018;-81
2023/06/30 02:46:00;;;;;;;9.73;4.10;;;;;;;13.45;99.74;101394.88;4973449;28;20093;-81
2023/06/30 02:48:26;;;;;;;9.30;3.45;;;;;;;13.43;99.38;101406.53;4973304;28;20066;-80
2023/06/30 02:50:51;;;;;;;7.63;3.67;;;;;;;13.36;99.57;101400.88;4972396;28;20498;-81
2023/06/30 02:53:16;;;;;;;9.55;3.97;;;;;;;13.29;99.39;101394.38;4973017;28;20053;-79
2023/06/30 02:55:42;;;;;;;7.45;3.45;;;;;;;13.27;99.08;101398.09;4970457;28;20034;-78
2023/06/30 02:58:10;;;;;;;10.85;4.00;;;;;;;13.23;99.59;101404.56;4969453;28;20031;-79
2023/06/30 03:00:36;;;;;;;7.13;3.58;;;;;;;13.20;99.30;101395.06;4954018;28;20503;-80
2023/06/30 03:03:04;;;;;;;10.02;4.03;;;;;;;13.14;100.00;101400.78;4953557;28;20047;-79
2023/06/30 03:05:30;;;;;;;9.23;4.00;;;;;;;13.06;100.00;101397.88;4952802;28;20039;-79
2023/06/30 03:07:55;;;;;;;9.15;4.00;;;;;;;13.09;100.00;101400.28;4968225;28;20023;-79
2023/06/30 03:10:20;;;;;;;7.93;3.80;;;;;;;13.05;99.87;101402.31;4957595;28;20028;-79
2023/06/30 03:12:46;;;;;;;11.57;3.88;;;;;;;13.00;100.00;101399.19;4988678;28;20490;-81
2023/06/30 03:15:11;;;;;;;9.52;4.07;;;;;;;12.95;100.00;101401.34;4981521;28;20360;-79
2023/06/30 03:17:36;;;;;;;8.00;3.55;;;;;;;12.96;100.00;101397.72;4967673;28;20122;-79
2023/06/30 03:20:10;;;;;;;9.43;3.70;;;;;;;12.91;100.00;101393.75;4978530;28;20041;-79
2023/06/30 03:22:35;;;;;;;8.40;4.10;;;;;;;12.83;100.00;101389.06;4982752;28;20470;-79
2023/06/30 03:25:00;;;;;;;9.98;4.22;;;;;;;12.84;100.00;101386.31;4992978;28;20101;-79
2023/06/30 03:27:26;;;;;;;9.10;4.15;;;;;;;12.87;100.00;101382.59;4968812;28;20059;-80
2023/06/30 03:29:51;;;;;;;8.50;4.05;;;;;;;12.79;100.00;101382.28;4984406;28;20053;-80
2023/06/30 03:32:18;;;;;;;10.15;4.57;;;;;;;12.74;100.00;101387.06;4979897;28;20011;-79
2023/06/30 03:34:43;;;;;;;8.77;4.50;;;;;;;12.74;100.00;101379.16;4971981;28;20141;-79
2023/06/30 03:37:09;;;;;;;7.75;4.47;;;;;;;12.70;100.00;101377.69;4979698;28;20061;-80
2023/06/30 03:39:34;;;;;;;14.10;4.82;;;;;;;12.71;100.00;101388.16;4983816;28;20045;-80
2023/06/30 03:41:59;;;;;;;12.45;4.82;;;;;;;12.70;100.00;101381.19;4989518;28;20410;-81
2023/06/30 03:44:27;;;;;;;9.90;4.82;;;;;;;12.68;100.00;101388.38;4973454;28;20022;-80
2023/06/30 03:46:53;;;;;;;11.68;4.93;;;;;;;12.68;100.00;101379.63;4987682;28;20224;-80
2023/06/30 03:49:19;;;;;;;11.02;4.90;;;;;;;12.70;100.00;101369.78;4974282;28;20023;-80
2023/06/30 03:51:44;;;;;;;10.70;4.93;;;;;;;12.66;100.00;101373.59;4985744;28;20025;-80
2023/06/30 03:54:10;;;;;;;12.80;5.28;;;;;;;12.68;100.00;101372.53;4987256;28;20034;-80
2023/06/30 03:56:35;;;;;;;11.60;5.50;;;;;;;12.69;100.00;101368.94;4988687;28;20038;-80
2023/06/30 03:59:00;;;;;;;12.15;5.05;;;;;;;12.62;100.00;101374.78;4984554;28;20433;-80
2023/06/30 04:01:26;;;;;;;12.90;4.97;;;;;;;12.65;100.00;101369.28;4976031;28;20034;-80
2023/06/30 04:03:52;;;;;;;9.90;5.03;;;;;;;12.63;100.00;101373.84;4986784;28;20033;-80
2023/06/30 04:06:17;;;;;;;12.18;5.25;;;;;;;12.81;100.00;101361.91;4982357;28;20038;-80
2023/06/30 04:08:44;;;;;;;9.50;5.30;;;;;;;13.16;100.00;101372.44;4980329;28;20022;-80
2023/06/30 04:11:09;;;;;;;10.48;5.00;;;;;;;13.52;100.00;101367.94;4984307;28;21136;-80
2023/06/30 04:13:35;;;;;;;11.27;4.88;;;;;;;14.02;97.38;101382.50;4974858;28;20034;-80
2023/06/30 04:16:00;;;;;;;11.00;4.53;;;;;;;14.47;94.63;101374.47;4982346;28;20053;-80
2023/06/30 04:18:27;;;;;;;9.57;4.28;;;;;;;14.85;91.97;101376.63;4970982;28;20114;-80
2023/06/30 04:20:52;;;;;;;10.50;4.50;;;;;;;15.11;89.79;101371.75;4978539;28;20032;-80
2023/06/30 04:23:17;;;;;;;9.80;4.50;;;;;;;15.13;88.71;101385.72;4987164;28;20034;-80
2023/06/30 04:25:43;;;;;;;9.50;4.30;;;;;;;14.97;88.88;101381.72;4986990;28;20054;-80
2023/06/30 04:28:08;;;;;;;10.18;4.40;;;;;;;14.71;90.23;101380.38;4979940;28;20102;-80
2023/06/30 04:30:34;;;;;;;10.85;4.50;;;;;;;14.61;90.59;101379.47;4983453;28;20042;-80
2023/06/30 04:33:00;;;;;;;8.48;3.97;;;;;;;14.37;91.11;101387.56;4978781;28;20026;-79
2023/06/30 04:35:25;;;;;;;8.32;4.47;;;;;;;14.20;92.23;101386.31;4985691;28;20130;-81
2023/06/30 04:37:52;;;;;;;7.45;4.15;;;;;;;14.10;92.91;101388.00;4989520;28;20026;-80
2023/06/30 04:40:17;;;;;;;7.55;4.70;;;;;;;13.95;93.69;101383.91;4980389;28;20036;-80
2023/06/30 04:42:43;;;;;;;6.57;4.40;;;;;;;13.90;94.03;101381.66;4971117;28;20483;-80
2023/06/30 04:45:08;;;;;;;10.32;4.97;;;;;;;13.75;94.94;101380.22;4966396;28;20089;-80
2023/06/30 04:47:34;;;;;;;9.57;4.72;;;;;;;13.69;95.19;101378.91;4970052;28;20065;-80
2023/06/30 04:49:59;;;;;;;7.50;4.43;;;;;;;13.68;95.26;101382.50;4954261;28;20512;-80
2023/06/30 04:52:25;;;;;;;8.90;4.97;;;;;;;13.59;96.21;101388.50;4950926;28;20090;-80
2023/06/30 04:54:50;;;;;;;7.05;4.85;;;;;;;13.58;96.35;101386.81;4953719;28;20039;-80
2023/06/30 04:57:15;;;;;;;9.98;5.25;;;;;;;13.54;96.70;101393.31;4966264;28;20026;-80
2023/06/30 04:59:41;;;;;;;10.85;5.10;;;;;;;13.53;97.96;101386.34;4950841;29;20408;-81
2023/06/30 05:02:10;;;;;;;7.97;5.20;;;;;;;13.48;98.22;101383.22;4952497;29;20062;-81
2023/06/30 05:04:35;;;;;;;8.07;5.15;;;;;;;13.50;98.32;101381.28;4956653;28;20089;-81
2023/06/30 05:07:00;;;;;;;8.32;5.43;;;;;;;13.45;98.48;101383.44;4952023;28;20142;-80
2023/06/30 05:09:26;;;;;;;9.18;5.07;;;;;;;13.52;98.97;101389.94;4951840;28;20030;-81
2023/06/30 05:11:52;;;;;;;9.95;5.40;;;;;;;13.51;99.29;101392.69;4950840;28;20475;-80
2023/06/30 05:14:17;;;;;;;10.02;5.50;;;;;;;13.55;98.81;101388.84;4951885;28;20034;-81
2023/06/30 05:16:42;;;;;;;12.20;5.68;;;;;;;13.59;99.21;101385.00;4976968;28;20030;-80
2023/06/30 05:19:08;;;;;;;10.20;6.07;;;;;;;13.63;99.33;101375.91;4989474;28;20030;-81
2023/06/30 05:21:33;;;;;;;11.85;6.05;;;;;;;13.61;98.24;101378.69;4979366;28;20027;-81
2023/06/30 05:24:00;;;;;;;9.88;5.78;;;;;;;13.68;98.76;101379.88;4975341;28;20090;-81
2023/06/30 05:26:26;;;;;;;9.43;5.85;;;;;;;13.72;99.23;101389.25;4970412;28;20121;-81
2023/06/30 05:28:52;;;;;;;11.10;6.07;;;;;;;13.76;98.30;101388.03;4972768;28;20499;-81
2023/06/30 05:31:17;;;;;;;9.45;5.65;;;;;;;13.82;97.96;101383.22;4981873;28;20521;-81
2023/06/30 05:33:42;;;;;;;11.82;5.38;;;;;;;13.89;98.13;101387.06;4985412;28;20027;-80
2023/06/30 05:36:08;;;;;;;10.23;5.82;;;;;;;13.91;97.37;101385.13;4975702;28;20387;-80
2023/06/30 05:38:33;;;;;;;9.57;5.43;;;;;;;13.96;97.82;101388.25;4981625;28;20030;-81
2023/06/30 05:40:58;;;;;;;15.57;5.80;;;;;;;14.02;96.94;101382.50;4986679;28;20501;-81
2023/06/30 05:43:24;;;;;;;9.07;5.57;;;;;;;14.10;98.12;101390.66;4998105;28;20030;-81
2023/06/30 05:45:49;;;;;;;8.05;5.38;;;;;;;14.17;96.47;101386.56;4988868;28;20430;-81
2023/06/30 05:48:16;;;;;;;14.30;5.68;;;;;;;14.23;96.06;101385.22;4974769;28;20049;-81
2023/06/30 05:50:45;;;;;;;10.00;5.00;;;;;;;14.27;95.16;101390.13;4978589;28;20113;-80
2023/06/30 05:53:11;;;;;;;10.18;4.90;;;;;;;14.32;95.49;101385.31;4980226;28;20027;-80
2023/06/30 05:55:36;;;;;;;10.80;5.32;;;;;;;14.41;95.26;101387.22;4970047;28;20369;-81
2023/06/30 05:58:01;;;;;;;12.55;4.88;;;;;;;14.45;94.21;101389.66;4973784;28;20045;-82
2023/06/30 06:00:27;;;;;;;12.65;5.00;;;;;;;14.48;93.73;101379.66;4983261;28;20180;-81
2023/06/30 06:02:53;;;;;;;9.70;4.80;;;;;;;14.55;94.00;101379.97;4984139;28;20027;-78
2023/06/30 06:05:18;;;;;;;10.73;4.75;;;;;;;14.57;93.20;101383.34;4990084;28;20034;-78
2023/06/30 06:07:44;;;;;;;9.45;5.13;;;;;;;14.63;92.66;101378.38;4977550;28;20122;-77
2023/06/30 06:10:09;;;;;;;7.45;4.38;;;;;;;14.67;92.21;101379.81;4972439;28;20026;-77
2023/06/30 06:12:35;;;;;;;12.77;4.95;;;;;;;14.73;91.77;101378.44;4965042;28;20391;-77
2023/06/30 06:15:00;;;;;;;12.52;4.28;;;;;;;14.79;91.10;101377.09;4973589;28;20033;-77
2023/06/30 06:17:26;;;;;;;10.10;4.65;;;;;;;14.82;90.04;101372.41;4974408;28;20521;-76
2023/06/30 06:19:55;;;;;;;11.13;3.92;;;;;;;14.93;90.13;101380.31;4972260;28;20030;-76
2023/06/30 06:22:21;;;;;;;11.82;4.22;;;;;;;14.97;89.98;101378.22;4973346;28;20450;-77
2023/06/30 06:24:46;;;;;;;8.65;4.43;;;;;;;15.06;89.85;101380.09;4994878;28;20054;-77
2023/06/30 06:27:12;;;;;;;10.18;4.32;;;;;;;15.14;90.10;101387.41;4989103;28;20022;-77
2023/06/30 06:29:37;;;;;;;7.18;3.92;;;;;;;15.17;90.08;101397.75;4974249;28;20054;-76
2023/06/30 06:32:04;;;;;;;10.63;4.13;;;;;;;15.30;88.86;101387.78;4965887;28;20031;-76
2023/06/30 06:34:29;;;;;;;10.25;4.32;;;;;;;15.37;88.59;101388.94;4972763;28;20058;-76
2023/06/30 06:36:54;;;;;;;6.07;3.70;;;;;;;15.45;88.42;101391.78;4976057;28;20058;-75
2023/06/30 06:39:20;;;;;;;13.98;4.05;;;;;;;15.50;88.33;101392.22;4974903;28;20073;-75
2023/06/30 06:41:48;;;;;;;7.95;4.15;;;;;;;15.62;88.47;101393.88;4971734;28;20022;-80
2023/06/30 06:44:13;;;;;;;7.53;4.10;;;;;;;15.72;87.47;101393.06;4968118;28;20455;-79
2023/06/30 06:46:39;;;;;;;8.93;3.42;;;;;;;15.76;85.43;101394.47;4962563;28;20054;-79
2023/06/30 06:49:10;;;;;;;9.73;3.67;;;;;;;15.81;85.11;101387.78;4990177;28;20034;-79
2023/06/30 06:51:36;;;;;;;7.95;3.30;;;;;;;15.88;83.17;101388.94;4971787;28;20420;-79
2023/06/30 06:54:01;;;;;;;7.45;3.17;;;;;;;15.89;82.17;101384.47;4960109;28;20122;-80
2023/06/30 06:56:26;;;;;;;7.25;3.00;;;;;;;15.99;82.56;101382.66;4961615;28;20058;-79
2023/06/30 06:58:52;;;;;;;8.75;2.88;;;;;;;16.05;81.66;101376.84;4966889;28;20051;-79
2023/06/30 07:01:17;;;;;;;8.82;2.90;;;;;;;16.15;80.61;101379.50;4982912;28;20038;-80
2023/06/30 07:03:43;;;;;;;15.32;3.25;;;;;;;16.22;78.90;101388.63;4956715;28;20506;-81
2023/06/30 07:06:08;;;;;;;6.72;2.40;;;;;;;16.32;75.84;101385.97;4973857;28;20054;-79
2023/06/30 07:08:35;;;;;;;11.43;2.75;;;;;;;16.47;76.22;101384.59;4963409;28;20027;-79
2023/06/30 07:11:01;;;;;;;7.30;3.00;;;;;;;16.71;76.17;101385.06;4967070;28;20124;-79
2023/06/30 07:13:27;;;;;;;5.63;2.67;;;;;;;17.01;75.47;101385.88;4964862;28;20043;-79
2023/06/30 07:15:53;;;;;;;7.10;2.50;;;;;;;17.29;73.17;101390.31;4986898;28;20489;-79
2023/06/30 07:18:20;;;;;;;8.27;2.42;;;;;;;17.52;71.27;101394.31;4975402;28;20356;-78
2023/06/30 07:20:50;;;;;;;2.83;1.60;;;;;;;17.89;67.31;101396.16;4979669;28;20033;-79
2023/06/30 07:23:16;;;;;;;4.10;1.63;;;;;;;18.21;64.75;101390.38;4973908;28;20034;-79
2023/06/30 07:25:43;;;;;;;4.95;2.00;;;;;;;18.57;65.49;101391.25;4982235;28;20443;-78
2023/06/30 07:28:09;;;;;;;5.10;1.83;;;;;;;18.70;62.51;101385.56;4974118;28;20022;-79
2023/06/30 07:30:36;;;;;;;6.45;1.75;;;;;;;19.03;64.24;101386.69;4973280;28;20014;-78
2023/06/30 07:33:01;;;;;;;4.35;1.70;;;;;;;19.35;60.22;101386.91;4972226;28;20384;-78
2023/06/30 07:35:26;;;;;;;5.38;2.17;;;;;;;19.62;57.90;101390.44;4972546;28;20895;-78
2023/06/30 07:37:52;;;;;;;7.80;1.60;;;;;;;19.84;57.20;101394.38;4958579;28;20024;-79
2023/06/30 07:40:18;;;;;;;7.88;1.92;;;;;;;20.05;55.38;101393.97;4951400;29;20031;-79
2023/06/30 07:42:44;;;;;;;3.65;1.50;;;;;;;20.32;54.57;101391.03;4967967;28;20029;-79
2023/06/30 07:45:17;;;;;;;5.30;1.73;;;;;;;20.52;55.86;101387.09;4972581;28;20041;-79
2023/06/30 07:47:43;;;;;;;5.43;1.70;;;;;;;20.71;54.27;101390.44;4971186;28;20117;-79
2023/06/30 07:50:12;;;;;;;8.57;1.50;;;;;;;20.97;52.81;101383.13;4972637;28;20038;-79
2023/06/30 07:52:50;;;;;;;6.13;1.30;;;;;;;21.21;52.98;101382.25;4971978;28;20031;-79
2023/06/30 07:55:17;;;;;;;4.60;1.42;;;;;;;21.48;49.01;101383.72;4972142;28;20587;-79
2023/06/30 07:57:44;;;;;;;4.20;1.40;;;;;;;21.57;50.88;101383.53;4980496;28;20042;-79
2023/06/30 08:00:12;;;;;;;5.38;1.55;;;;;;;21.61;50.42;101385.84;4975615;28;20034;-79
2023/06/30 08:02:40;;;;;;;5.15;1.60;;;;;;;21.82;50.53;101386.97;4983384;28;20034;-79
2023/06/30 08:05:05;;;;;;;7.60;2.05;;;;;;;21.95;49.21;101385.56;4990947;28;20033;-78
2023/06/30 08:07:31;;;;;;;4.25;1.80;;;;;;;22.05;50.01;101392.44;4990885;28;20026;-79
2023/06/30 08:09:56;;;;;;;5.55;1.85;;;;;;;22.36;47.52;101389.72;4981587;28;20050;-79
2023/06/30 08:12:22;;;;;;;7.55;1.55;;;;;;;22.40;47.49;101388.38;4978098;28;20054;-79
2023/06/30 08:14:50;;;;;;;3.65;1.52;;;;;;;22.59;45.07;101387.06;4972039;28;20122;-80
2023/06/30 08:17:15;;;;;;;5.05;1.30;;;;;;;22.68;45.77;101380.63;4972447;28;20054;-79
2023/06/30 08:19:42;;;;;;;5.60;1.50;;;;;;;22.70;43.90;101383.13;4972989;28;20549;-79
2023/06/30 08:22:13;;;;;;;3.88;1.40;;;;;;;22.83;44.39;101380.72;4972926;28;20014;-79
2023/06/30 08:24:40;;;;;;;4.90;1.50;;;;;;;23.07;45.07;101371.63;4973948;28;20023;-79
2023/06/30 08:27:05;;;;;;;5.05;1.50;;;;;;;23.39;45.67;101370.47;4970172;28;20018;-79
2023/06/30 08:29:31;;;;;;;6.00;1.88;;;;;;;23.59;43.42;101376.97;4967754;28;20036;-79
2023/06/30 08:31:56;;;;;;;3.15;1.60;;;;;;;23.39;44.25;101371.28;4972263;28;20657;-79
2023/06/30 08:34:25;;;;;;;7.32;1.67;;;;;;;23.74;45.45;101368.91;4971691;28;20090;-79
2023/06/30 08:36:52;;;;;;;4.43;1.63;;;;;;;23.39;42.94;101367.78;4970912;28;20041;-79
2023/06/30 08:39:17;;;;;;;4.85;1.67;;;;;;;23.33;43.10;101372.03;4972744;28;20357;-79
2023/06/30 08:41:44;;;;;;;3.08;1.40;;;;;;;23.18;43.31;101364.97;4972028;28;20037;-79
2023/06/30 08:44:10;;;;;;;3.60;1.50;;;;;;;23.27;41.92;101361.19;4968766;28;20030;-77
2023/06/30 08:46:36;;;;;;;4.38;1.80;;;;;;;23.25;42.30;101356.00;4971263;28;20023;-78
2023/06/30 08:49:01;;;;;;;2.70;1.38;;;;;;;23.61;43.98;101347.22;4969532;28;20093;-78
2023/06/30 08:51:27;;;;;;;5.03;1.63;;;;;;;23.94;41.63;101353.03;4971442;28;20033;-79
2023/06/30 08:53:53;;;;;;;5.03;1.50;;;;;;;24.04;41.16;101356.25;4960428;28;20030;-79
2023/06/30 08:56:20;;;;;;;5.78;1.27;;;;;;;24.06;41.69;101340.78;4959378;28;20326;-79
2023/06/30 08:58:45;;;;;;;6.72;1.75;;;;;;;24.03;41.44;101343.84;4958618;28;20040;-79
2023/06/30 09:01:12;;;;;;;8.75;1.83;;;;;;;24.05;40.82;101342.63;4958856;28;20100;-78
2023/06/30 09:03:38;;;;;;;6.30;1.48;;;;;;;24.13;41.88;101347.06;4959519;28;21220;-79
2023/06/30 09:06:03;;;;;;;4.40;1.92;;;;;;;24.13;39.29;101341.69;4957241;28;20046;-78
2023/06/30 09:08:47;;;;;;;7.38;1.95;;;;;;;24.32;43.10;101340.25;4960348;28;20077;-79
2023/06/30 09:11:15;;;;;;;6.05;1.80;;;;;;;23.95;40.24;101338.56;4959413;28;20038;-79
2023/06/30 09:13:42;;;;;;;5.93;1.73;;;;;;;24.36;40.58;101336.97;4961178;28;20491;-78
2023/06/30 09:16:15;;;;;;;5.35;1.90;;;;;;;24.02;40.28;101350.25;4964750;28;20031;-80
2023/06/30 09:18:42;;;;;;;6.85;1.88;;;;;;;24.05;40.57;101333.72;4961900;28;20113;-78
2023/06/30 09:21:08;;;;;;;7.55;1.88;;;;;;;24.18;40.41;101333.88;4965773;28;20066;-79
2023/06/30 09:23:34;;;;;;;3.05;1.65;;;;;;;24.18;41.21;101331.19;4960216;28;20063;-79
2023/06/30 09:26:00;;;;;;;2.72;1.30;;;;;;;24.47;39.35;101332.13;4961472;28;20130;-78
2023/06/30 09:28:25;;;;;;;3.10;1.50;;;;;;;24.16;39.67;101333.22;4968664;28;20038;-78
2023/06/30 09:30:51;;;;;;;3.15;1.40;;;;;;;23.92;39.38;101334.38;4964074;28;20031;-80
2023/06/30 09:33:17;;;;;;;6.38;1.70;;;;;;;23.86;41.21;101329.78;4964219;28;20043;-80
2023/06/30 09:35:46;;;;;;;4.38;1.40;;;;;;;23.75;40.51;101331.09;4966434;28;20051;-78
2023/06/30 09:38:17;;;;;;;3.47;1.35;;;;;;;23.99;40.66;101331.78;4960301;28;20067;-77
2023/06/30 09:40:52;;;;;;;3.35;1.50;;;;;;;24.02;39.41;101323.38;4968873;28;20513;-77
2023/06/30 09:43:19;;;;;;;8.52;1.70;;;;;;;24.23;41.09;101323.38;4973104;28;20038;-77
2023/06/30 09:45:47;;;;;;;5.40;1.60;;;;;;;24.38;39.16;101317.94;4969442;28;21408;-78
2023/06/30 09:48:13;;;;;;;7.05;1.50;;;;;;;24.43;39.37;101326.31;4969612;28;20387;-78
2023/06/30 09:50:41;;;;;;;2.53;1.40;;;;;;;24.14;40.24;101323.69;4970608;28;20027;-78
2023/06/30 09:53:08;;;;;;;4.00;1.83;;;;;;;24.06;38.91;101321.94;4980299;28;20490;-78
2023/06/30 09:55:45;;;;;;;7.05;1.73;;;;;;;23.95;39.69;101323.25;4964677;28;20019;-78
2023/06/30 09:58:11;;;;;;;4.47;1.38;;;;;;;23.85;40.36;101322.75;4965562;28;20030;-77
2023/06/30 10:00:40;;;;;;;4.88;1.90;;;;;;;23.84;39.82;101328.31;4971231;28;20652;-79
2023/06/30 10:03:10;;;;;;;4.10;1.60;;;;;;;23.75;37.38;101319.53;4978734;28;20041;-78
2023/06/30 10:05:39;;;;;;;4.90;1.60;;;;;;;23.97;38.65;101323.91;4979653;28;20029;-79
2023/06/30 10:08:06;;;;;;;7.18;1.40;;;;;;;24.36;39.15;101315.44;4989255;28;20077;-79
2023/06/30 10:10:32;;;;;;;4.00;1.50;;;;;;;24.40;37.22;101313.22;4985787;28;20109;-78
2023/06/30 10:12:58;;;;;;;3.10;1.40;;;;;;;24.46;38.34;101315.16;4985656;28;20113;-78
2023/06/30 10:15:25;;;;;;;4.72;1.33;;;;;;;24.41;37.35;101308.66;4966970;28;20029;-78
2023/06/30 10:17:56;;;;;;;5.68;1.58;;;;;;;24.18;37.23;101304.28;4957224;28;20435;-78
2023/06/30 10:20:22;;;;;;;2.97;1.20;;;;;;;24.41;38.64;101306.81;4958351;28;20030;-79
2023/06/30 10:22:47;;;;;;;3.25;1.50;;;;;;;24.65;37.85;101308.28;4962996;28;20030;-76
2023/06/30 10:25:16;;;;;;;5.43;1.70;;;;;;;24.60;37.60;101310.72;4962654;28;20053;-77
2023/06/30 10:27:44;;;;;;;3.60;1.70;;;;;;;24.24;36.92;101306.22;4961586;28;20738;-77
2023/06/30 10:30:12;;;;;;;3.58;1.60;;;;;;;23.74;37.25;101299.88;4962332;28;20058;-77
2023/06/30 10:32:39;;;;;;;4.57;1.70;;;;;;;23.85;39.76;101298.53;4961776;28;20042;-79
2023/06/30 10:35:06;;;;;;;3.70;1.20;;;;;;;24.20;39.35;101299.53;4962532;28;20086;-77
2023/06/30 10:37:32;;;;;;;5.97;1.42;;;;;;;24.36;38.07;101304.69;4959306;28;20050;-79
2023/06/30 10:39:58;;;;;;;4.53;1.05;;;;;;;24.65;38.72;101286.75;4960581;28;20092;-78
2023/06/30 10:42:27;;;;;;;3.78;1.50;;;;;;;24.80;36.41;101292.00;4957782;28;20039;-79
2023/06/30 10:44:57;;;;;;;4.40;1.27;;;;;;;24.92;37.09;101288.59;4960814;28;20065;-79
2023/06/30 10:47:27;;;;;;;4.38;1.35;;;;;;;25.00;38.08;101293.03;4976805;28;20030;-79
2023/06/30 10:49:54;;;;;;;4.95;1.23;;;;;;;24.88;37.76;101286.50;4960562;28;20031;-76
2023/06/30 10:52:29;;;;;;;3.13;1.30;;;;;;;24.98;38.36;101282.47;4966096;28;20100;-76
2023/06/30 10:55:03;;;;;;;5.82;1.52;;;;;;;24.71;37.01;101274.34;4958087;28;20039;-77
2023/06/30 10:57:35;;;;;;;3.58;1.35;;;;;;;24.63;37.05;101278.88;4976611;28;20042;-76
2023/06/30 11:00:11;;;;;;;3.35;1.42;;;;;;;24.64;37.38;101275.13;4959973;28;20521;-76
2023/06/30 11:02:47;;;;;;;4.97;1.40;;;;;;;24.61;36.92;101269.31;4961019;28;20077;-78
2023/06/30 11:05:24;;;;;;;3.72;1.60;;;;;;;24.74;37.60;101272.09;4961714;28;20039;-75
2023/06/30 11:07:52;;;;;;;5.72;1.65;;;;;;;24.36;37.36;101261.66;4961300;28;20045;-79
2023/06/30 11:10:44;;;;;;;4.40;1.67;;;;;;;24.03;39.15;101271.25;4959176;28;20026;-79
2023/06/30 11:13:10;;;;;;;4.40;1.60;;;;;;;24.07;39.43;101267.16;4961073;28;20496;-78
2023/06/30 11:15:41;;;;;;;3.13;1.25;;;;;;;24.17;39.71;101272.22;4960109;28;20428;-78
2023/06/30 11:18:23;;;;;;;3.70;1.90;;;;;;;24.35;38.42;101268.06;4959401;28;20134;-78
2023/06/30 11:21:03;;;;;;;3.28;1.70;;;;;;;24.58;39.40;101269.72;4959175;28;20435;-78